sensor_id;sensor_type;location;lat;lon;timestamp;temperature;humidity
19622;DHT22;9958;33.196;-97.114;2022-09-09T00:01:25;30.60;87.90
19622;DHT22;9958;33.196;-97.114;2022-09-09T00:04:01;30.50;88.40
19622;DHT22;9958;33.196;-97.114;2022-09-09T00:06:32;30.50;90.20
19622;DHT22;9958;33.196;-97.114;2022-09-09T00:09:04;30.40;90.40
19622;DHT22;9958;33.196;-97.114;2022-09-09T00:11:42;30.30;90.70
19622;DHT22;9958;33.196;-97.114;2022-09-09T00:14:16;30.20;90.90
19622;DHT22;9958;33.196;-97.114;2022-09-09T00:16:51;30.10;90.80
19622;DHT22;9958;33.196;-97.114;2022-09-09T00:19:26;30.00;91.00
19622;DHT22;9958;33.196;-97.114;2022-09-09T00:22:07;29.90;91.50
19622;DHT22;9958;33.196;-97.114;2022-09-09T00:24:43;29.80;91.90
19622;DHT22;9958;33.196;-97.114;2022-09-09T00:27:19;29.70;91.90
19622;DHT22;9958;33.196;-97.114;2022-09-09T00:29:52;29.60;92.30
19622;DHT22;9958;33.196;-97.114;2022-09-09T00:32:21;29.50;92.80
19622;DHT22;9958;33.196;-97.114;2022-09-09T00:34:52;29.40;93.20
19622;DHT22;9958;33.196;-97.114;2022-09-09T00:37:23;29.30;93.50
19622;DHT22;9958;33.196;-97.114;2022-09-09T00:39:55;29.20;93.50
19622;DHT22;9958;33.196;-97.114;2022-09-09T00:42:36;29.10;93.40
19622;DHT22;9958;33.196;-97.114;2022-09-09T00:45:22;29.00;93.50
19622;DHT22;9958;33.196;-97.114;2022-09-09T00:47:55;28.90;93.80
19622;DHT22;9958;33.196;-97.114;2022-09-09T00:50:35;28.70;93.90
19622;DHT22;9958;33.196;-97.114;2022-09-09T00:53:24;28.60;94.20
19622;DHT22;9958;33.196;-97.114;2022-09-09T00:56:03;28.50;94.20
19622;DHT22;9958;33.196;-97.114;2022-09-09T00:58:36;28.40;94.30
19622;DHT22;9958;33.196;-97.114;2022-09-09T01:01:06;28.30;94.40
19622;DHT22;9958;33.196;-97.114;2022-09-09T01:03:37;28.20;94.40
19622;DHT22;9958;33.196;-97.114;2022-09-09T01:06:16;28.20;94.90
19622;DHT22;9958;33.196;-97.114;2022-09-09T01:08:56;28.10;95.10
19622;DHT22;9958;33.196;-97.114;2022-09-09T01:11:27;28.00;95.30
19622;DHT22;9958;33.196;-97.114;2022-09-09T01:14:03;27.90;95.50
19622;DHT22;9958;33.196;-97.114;2022-09-09T01:16:38;27.80;95.20
19622;DHT22;9958;33.196;-97.114;2022-09-09T01:19:10;27.70;95.60
19622;DHT22;9958;33.196;-97.114;2022-09-09T01:21:47;27.70;95.90
19622;DHT22;9958;33.196;-97.114;2022-09-09T01:24:24;27.60;95.90
19622;DHT22;9958;33.196;-97.114;2022-09-09T01:26:58;27.50;96.00
19622;DHT22;9958;33.196;-97.114;2022-09-09T01:29:28;27.50;96.50
19622;DHT22;9958;33.196;-97.114;2022-09-09T01:31:58;27.40;96.50
19622;DHT22;9958;33.196;-97.114;2022-09-09T01:34:28;27.30;96.30
19622;DHT22;9958;33.196;-97.114;2022-09-09T01:37:00;27.30;96.90
19622;DHT22;9958;33.196;-97.114;2022-09-09T01:39:31;27.20;97.00
19622;DHT22;9958;33.196;-97.114;2022-09-09T01:42:01;27.20;97.30
19622;DHT22;9958;33.196;-97.114;2022-09-09T01:44:31;27.20;97.00
19622;DHT22;9958;33.196;-97.114;2022-09-09T01:46:59;27.10;96.90
19622;DHT22;9958;33.196;-97.114;2022-09-09T01:49:27;27.10;97.40
19622;DHT22;9958;33.196;-97.114;2022-09-09T01:51:56;27.10;97.50
19622;DHT22;9958;33.196;-97.114;2022-09-09T01:54:28;27.00;97.20
19622;DHT22;9958;33.196;-97.114;2022-09-09T01:57:08;27.10;97.90
19622;DHT22;9958;33.196;-97.114;2022-09-09T01:59:48;27.10;98.00
19622;DHT22;9958;33.196;-97.114;2022-09-09T02:02:21;27.00;97.60
19622;DHT22;9958;33.196;-97.114;2022-09-09T02:04:54;27.00;97.90
19622;DHT22;9958;33.196;-97.114;2022-09-09T02:07:38;27.00;97.30
19622;DHT22;9958;33.196;-97.114;2022-09-09T02:10:10;27.00;97.10
19622;DHT22;9958;33.196;-97.114;2022-09-09T02:12:47;27.00;97.00
19622;DHT22;9958;33.196;-97.114;2022-09-09T02:15:21;27.00;96.70
19622;DHT22;9958;33.196;-97.114;2022-09-09T02:17:51;27.00;96.20
19622;DHT22;9958;33.196;-97.114;2022-09-09T02:20:20;27.10;96.20
19622;DHT22;9958;33.196;-97.114;2022-09-09T02:22:51;27.10;96.20
19622;DHT22;9958;33.196;-97.114;2022-09-09T02:25:23;27.10;96.00
19622;DHT22;9958;33.196;-97.114;2022-09-09T02:27:54;27.10;95.50
19622;DHT22;9958;33.196;-97.114;2022-09-09T02:30:24;27.10;95.60
19622;DHT22;9958;33.196;-97.114;2022-09-09T02:32:55;27.10;96.20
19622;DHT22;9958;33.196;-97.114;2022-09-09T02:35:25;27.10;95.70
19622;DHT22;9958;33.196;-97.114;2022-09-09T02:37:58;27.10;95.40
19622;DHT22;9958;33.196;-97.114;2022-09-09T02:40:27;27.10;95.70
19622;DHT22;9958;33.196;-97.114;2022-09-09T02:42:57;27.10;95.00
19622;DHT22;9958;33.196;-97.114;2022-09-09T02:45:31;27.10;95.50
19622;DHT22;9958;33.196;-97.114;2022-09-09T02:48:07;27.10;95.40
19622;DHT22;9958;33.196;-97.114;2022-09-09T02:50:43;27.10;95.80
19622;DHT22;9958;33.196;-97.114;2022-09-09T02:53:17;27.00;95.40
19622;DHT22;9958;33.196;-97.114;2022-09-09T02:55:48;27.00;95.90
19622;DHT22;9958;33.196;-97.114;2022-09-09T02:58:19;26.90;95.80
19622;DHT22;9958;33.196;-97.114;2022-09-09T03:00:49;26.90;95.30
19622;DHT22;9958;33.196;-97.114;2022-09-09T03:03:19;26.90;95.40
19622;DHT22;9958;33.196;-97.114;2022-09-09T03:05:48;26.80;95.40
19622;DHT22;9958;33.196;-97.114;2022-09-09T03:08:17;26.80;95.60
19622;DHT22;9958;33.196;-97.114;2022-09-09T03:10:45;26.80;95.80
19622;DHT22;9958;33.196;-97.114;2022-09-09T03:13:13;26.80;96.10
19622;DHT22;9958;33.196;-97.114;2022-09-09T03:15:43;26.80;96.10
19622;DHT22;9958;33.196;-97.114;2022-09-09T03:18:11;26.80;96.10
19622;DHT22;9958;33.196;-97.114;2022-09-09T03:20:40;26.70;96.40
19622;DHT22;9958;33.196;-97.114;2022-09-09T03:23:09;26.70;96.80
19622;DHT22;9958;33.196;-97.114;2022-09-09T03:25:39;26.60;96.80
19622;DHT22;9958;33.196;-97.114;2022-09-09T03:28:14;26.60;96.70
19622;DHT22;9958;33.196;-97.114;2022-09-09T03:30:43;26.60;96.70
19622;DHT22;9958;33.196;-97.114;2022-09-09T03:33:12;26.60;96.80
19622;DHT22;9958;33.196;-97.114;2022-09-09T03:35:45;26.50;97.10
19622;DHT22;9958;33.196;-97.114;2022-09-09T03:38:15;26.50;97.00
19622;DHT22;9958;33.196;-97.114;2022-09-09T03:40:49;26.50;97.10
19622;DHT22;9958;33.196;-97.114;2022-09-09T03:43:18;26.40;97.10
19622;DHT22;9958;33.196;-97.114;2022-09-09T03:45:49;26.40;97.40
19622;DHT22;9958;33.196;-97.114;2022-09-09T03:48:18;26.40;97.70
19622;DHT22;9958;33.196;-97.114;2022-09-09T03:50:47;26.40;97.80
19622;DHT22;9958;33.196;-97.114;2022-09-09T03:53:16;26.40;98.00
19622;DHT22;9958;33.196;-97.114;2022-09-09T03:55:45;26.40;98.10
19622;DHT22;9958;33.196;-97.114;2022-09-09T03:58:14;26.30;98.40
19622;DHT22;9958;33.196;-97.114;2022-09-09T04:00:42;26.30;98.50
19622;DHT22;9958;33.196;-97.114;2022-09-09T04:03:12;26.30;98.70
19622;DHT22;9958;33.196;-97.114;2022-09-09T04:05:41;26.20;98.70
19622;DHT22;9958;33.196;-97.114;2022-09-09T04:08:10;26.20;99.20
19622;DHT22;9958;33.196;-97.114;2022-09-09T04:10:38;26.10;99.20
19622;DHT22;9958;33.196;-97.114;2022-09-09T04:13:06;26.10;99.50
19622;DHT22;9958;33.196;-97.114;2022-09-09T04:15:35;26.00;99.60
19622;DHT22;9958;33.196;-97.114;2022-09-09T04:18:03;26.00;99.70
19622;DHT22;9958;33.196;-97.114;2022-09-09T04:20:33;26.00;99.70
19622;DHT22;9958;33.196;-97.114;2022-09-09T04:23:01;25.90;99.90
19622;DHT22;9958;33.196;-97.114;2022-09-09T04:25:29;25.90;99.90
19622;DHT22;9958;33.196;-97.114;2022-09-09T04:27:58;25.90;99.90
19622;DHT22;9958;33.196;-97.114;2022-09-09T04:30:26;25.90;99.90
19622;DHT22;9958;33.196;-97.114;2022-09-09T04:32:55;25.90;99.90
19622;DHT22;9958;33.196;-97.114;2022-09-09T04:35:24;25.80;99.90
19622;DHT22;9958;33.196;-97.114;2022-09-09T04:37:55;25.80;99.90
19622;DHT22;9958;33.196;-97.114;2022-09-09T04:40:23;25.80;99.90
19622;DHT22;9958;33.196;-97.114;2022-09-09T04:42:51;25.70;99.90
19622;DHT22;9958;33.196;-97.114;2022-09-09T04:45:19;25.80;99.90
19622;DHT22;9958;33.196;-97.114;2022-09-09T04:47:48;25.80;99.90
19622;DHT22;9958;33.196;-97.114;2022-09-09T04:50:16;25.70;99.90
19622;DHT22;9958;33.196;-97.114;2022-09-09T04:52:45;25.80;99.90
19622;DHT22;9958;33.196;-97.114;2022-09-09T04:55:14;25.70;99.90
19622;DHT22;9958;33.196;-97.114;2022-09-09T04:57:43;25.80;99.90
19622;DHT22;9958;33.196;-97.114;2022-09-09T05:00:12;25.80;99.90
19622;DHT22;9958;33.196;-97.114;2022-09-09T05:02:40;25.80;99.90
19622;DHT22;9958;33.196;-97.114;2022-09-09T05:05:09;25.80;99.90
19622;DHT22;9958;33.196;-97.114;2022-09-09T05:07:37;25.80;99.90
19622;DHT22;9958;33.196;-97.114;2022-09-09T05:10:06;25.80;99.90
19622;DHT22;9958;33.196;-97.114;2022-09-09T05:12:36;25.70;99.90
19622;DHT22;9958;33.196;-97.114;2022-09-09T05:15:05;25.70;99.90
19622;DHT22;9958;33.196;-97.114;2022-09-09T05:17:33;25.70;99.90
19622;DHT22;9958;33.196;-97.114;2022-09-09T05:20:02;25.60;99.90
19622;DHT22;9958;33.196;-97.114;2022-09-09T05:22:30;25.60;99.90
19622;DHT22;9958;33.196;-97.114;2022-09-09T05:24:59;25.60;99.90
19622;DHT22;9958;33.196;-97.114;2022-09-09T05:27:27;25.50;99.90
19622;DHT22;9958;33.196;-97.114;2022-09-09T05:29:59;25.50;99.90
19622;DHT22;9958;33.196;-97.114;2022-09-09T05:32:27;25.40;99.90
19622;DHT22;9958;33.196;-97.114;2022-09-09T05:34:58;25.40;99.90
19622;DHT22;9958;33.196;-97.114;2022-09-09T05:37:27;25.30;99.90
19622;DHT22;9958;33.196;-97.114;2022-09-09T05:39:56;25.30;99.90
19622;DHT22;9958;33.196;-97.114;2022-09-09T05:42:25;25.20;99.90
19622;DHT22;9958;33.196;-97.114;2022-09-09T05:44:58;25.10;99.90
19622;DHT22;9958;33.196;-97.114;2022-09-09T05:47:26;25.00;99.90
19622;DHT22;9958;33.196;-97.114;2022-09-09T05:49:55;25.00;99.90
19622;DHT22;9958;33.196;-97.114;2022-09-09T05:52:23;24.90;99.90
19622;DHT22;9958;33.196;-97.114;2022-09-09T05:54:52;24.90;99.90
19622;DHT22;9958;33.196;-97.114;2022-09-09T05:57:21;24.80;99.90
19622;DHT22;9958;33.196;-97.114;2022-09-09T05:59:49;24.80;99.90
19622;DHT22;9958;33.196;-97.114;2022-09-09T06:02:19;24.70;99.90
19622;DHT22;9958;33.196;-97.114;2022-09-09T06:04:47;24.60;99.90
19622;DHT22;9958;33.196;-97.114;2022-09-09T06:07:15;24.60;99.90
19622;DHT22;9958;33.196;-97.114;2022-09-09T06:09:44;24.50;99.90
19622;DHT22;9958;33.196;-97.114;2022-09-09T06:12:12;24.50;99.90
19622;DHT22;9958;33.196;-97.114;2022-09-09T06:14:40;24.40;99.90
19622;DHT22;9958;33.196;-97.114;2022-09-09T06:17:09;24.40;99.90
19622;DHT22;9958;33.196;-97.114;2022-09-09T06:19:39;24.30;99.90
19622;DHT22;9958;33.196;-97.114;2022-09-09T06:22:07;24.20;99.90
19622;DHT22;9958;33.196;-97.114;2022-09-09T06:24:36;24.20;99.90
19622;DHT22;9958;33.196;-97.114;2022-09-09T06:27:04;24.20;99.90
19622;DHT22;9958;33.196;-97.114;2022-09-09T06:29:33;24.10;99.90
19622;DHT22;9958;33.196;-97.114;2022-09-09T06:32:02;24.10;99.90
19622;DHT22;9958;33.196;-97.114;2022-09-09T06:34:30;24.00;99.90
19622;DHT22;9958;33.196;-97.114;2022-09-09T06:37:00;24.00;99.90
19622;DHT22;9958;33.196;-97.114;2022-09-09T06:39:28;23.90;99.90
19622;DHT22;9958;33.196;-97.114;2022-09-09T06:41:57;23.90;99.90
19622;DHT22;9958;33.196;-97.114;2022-09-09T06:44:25;23.80;99.90
19622;DHT22;9958;33.196;-97.114;2022-09-09T06:46:54;23.80;99.90
19622;DHT22;9958;33.196;-97.114;2022-09-09T06:49:22;23.80;99.90
19622;DHT22;9958;33.196;-97.114;2022-09-09T06:51:50;23.70;99.90
19622;DHT22;9958;33.196;-97.114;2022-09-09T06:54:20;23.70;99.90
19622;DHT22;9958;33.196;-97.114;2022-09-09T06:56:49;23.60;99.90
19622;DHT22;9958;33.196;-97.114;2022-09-09T06:59:17;23.60;99.90
19622;DHT22;9958;33.196;-97.114;2022-09-09T07:01:45;23.60;99.90
19622;DHT22;9958;33.196;-97.114;2022-09-09T07:04:14;23.50;99.90
19622;DHT22;9958;33.196;-97.114;2022-09-09T07:06:44;23.50;99.90
19622;DHT22;9958;33.196;-97.114;2022-09-09T07:09:14;23.50;99.90
19622;DHT22;9958;33.196;-97.114;2022-09-09T07:11:45;23.50;99.90
19622;DHT22;9958;33.196;-97.114;2022-09-09T07:14:14;23.50;99.90
19622;DHT22;9958;33.196;-97.114;2022-09-09T07:16:43;23.40;99.90
19622;DHT22;9958;33.196;-97.114;2022-09-09T07:19:12;23.40;99.90
19622;DHT22;9958;33.196;-97.114;2022-09-09T07:21:41;23.40;99.90
19622;DHT22;9958;33.196;-97.114;2022-09-09T07:24:10;23.30;99.90
19622;DHT22;9958;33.196;-97.114;2022-09-09T07:26:39;23.30;99.90
19622;DHT22;9958;33.196;-97.114;2022-09-09T07:29:09;23.30;99.90
19622;DHT22;9958;33.196;-97.114;2022-09-09T07:31:40;23.30;99.90
19622;DHT22;9958;33.196;-97.114;2022-09-09T07:34:08;23.30;99.90
19622;DHT22;9958;33.196;-97.114;2022-09-09T07:36:38;23.30;99.90
19622;DHT22;9958;33.196;-97.114;2022-09-09T07:39:09;23.30;99.90
19622;DHT22;9958;33.196;-97.114;2022-09-09T07:41:41;23.20;99.90
19622;DHT22;9958;33.196;-97.114;2022-09-09T07:44:12;23.30;99.90
19622;DHT22;9958;33.196;-97.114;2022-09-09T07:46:41;23.30;99.90
19622;DHT22;9958;33.196;-97.114;2022-09-09T07:49:11;23.30;99.90
19622;DHT22;9958;33.196;-97.114;2022-09-09T07:51:41;23.20;99.90
19622;DHT22;9958;33.196;-97.114;2022-09-09T07:54:11;23.20;99.90
19622;DHT22;9958;33.196;-97.114;2022-09-09T07:56:41;23.30;99.90
19622;DHT22;9958;33.196;-97.114;2022-09-09T07:59:11;23.30;99.90
19622;DHT22;9958;33.196;-97.114;2022-09-09T08:01:41;23.30;99.90
19622;DHT22;9958;33.196;-97.114;2022-09-09T08:04:11;23.30;99.90
19622;DHT22;9958;33.196;-97.114;2022-09-09T08:06:43;23.30;99.90
19622;DHT22;9958;33.196;-97.114;2022-09-09T08:09:13;23.30;99.90
19622;DHT22;9958;33.196;-97.114;2022-09-09T08:11:42;23.20;99.90
19622;DHT22;9958;33.196;-97.114;2022-09-09T08:14:12;23.30;99.90
19622;DHT22;9958;33.196;-97.114;2022-09-09T08:16:43;23.20;99.90
19622;DHT22;9958;33.196;-97.114;2022-09-09T08:19:12;23.20;99.90
19622;DHT22;9958;33.196;-97.114;2022-09-09T08:21:42;23.20;99.90
19622;DHT22;9958;33.196;-97.114;2022-09-09T08:24:11;23.20;99.90
19622;DHT22;9958;33.196;-97.114;2022-09-09T08:26:42;23.20;99.90
19622;DHT22;9958;33.196;-97.114;2022-09-09T08:29:13;23.20;99.90
19622;DHT22;9958;33.196;-97.114;2022-09-09T08:31:43;23.10;99.90
19622;DHT22;9958;33.196;-97.114;2022-09-09T08:34:11;23.10;99.90
19622;DHT22;9958;33.196;-97.114;2022-09-09T08:36:41;23.10;99.90
19622;DHT22;9958;33.196;-97.114;2022-09-09T08:39:11;23.10;99.90
19622;DHT22;9958;33.196;-97.114;2022-09-09T08:41:52;23.00;99.90
19622;DHT22;9958;33.196;-97.114;2022-09-09T08:44:34;23.00;99.90
19622;DHT22;9958;33.196;-97.114;2022-09-09T08:47:08;23.00;99.90
19622;DHT22;9958;33.196;-97.114;2022-09-09T08:49:57;22.90;99.90
19622;DHT22;9958;33.196;-97.114;2022-09-09T08:52:29;22.90;99.90
19622;DHT22;9958;33.196;-97.114;2022-09-09T08:55:03;22.90;99.90
19622;DHT22;9958;33.196;-97.114;2022-09-09T08:57:32;22.80;99.90
19622;DHT22;9958;33.196;-97.114;2022-09-09T09:00:04;22.80;99.90
19622;DHT22;9958;33.196;-97.114;2022-09-09T09:02:37;22.80;99.90
19622;DHT22;9958;33.196;-97.114;2022-09-09T09:05:15;22.80;99.90
19622;DHT22;9958;33.196;-97.114;2022-09-09T09:07:56;22.70;99.90
19622;DHT22;9958;33.196;-97.114;2022-09-09T09:10:39;22.60;99.90
19622;DHT22;9958;33.196;-97.114;2022-09-09T09:13:14;22.60;99.90
19622;DHT22;9958;33.196;-97.114;2022-09-09T09:15:46;22.50;99.90
19622;DHT22;9958;33.196;-97.114;2022-09-09T09:18:17;22.50;99.90
19622;DHT22;9958;33.196;-97.114;2022-09-09T09:20:54;22.50;99.90
19622;DHT22;9958;33.196;-97.114;2022-09-09T09:23:28;22.50;99.90
19622;DHT22;9958;33.196;-97.114;2022-09-09T09:26:01;22.40;99.90
19622;DHT22;9958;33.196;-97.114;2022-09-09T09:28:32;22.40;99.90
19622;DHT22;9958;33.196;-97.114;2022-09-09T09:31:05;22.40;99.90
19622;DHT22;9958;33.196;-97.114;2022-09-09T09:33:44;22.40;99.90
19622;DHT22;9958;33.196;-97.114;2022-09-09T09:36:14;22.40;99.90
19622;DHT22;9958;33.196;-97.114;2022-09-09T09:38:53;22.40;99.90
19622;DHT22;9958;33.196;-97.114;2022-09-09T09:41:34;22.40;99.90
19622;DHT22;9958;33.196;-97.114;2022-09-09T09:44:04;22.40;99.90
19622;DHT22;9958;33.196;-97.114;2022-09-09T09:46:35;22.40;99.90
19622;DHT22;9958;33.196;-97.114;2022-09-09T09:49:05;22.40;99.90
19622;DHT22;9958;33.196;-97.114;2022-09-09T09:51:34;22.40;99.90
19622;DHT22;9958;33.196;-97.114;2022-09-09T09:54:15;22.40;99.90
19622;DHT22;9958;33.196;-97.114;2022-09-09T09:56:46;22.40;99.90
19622;DHT22;9958;33.196;-97.114;2022-09-09T09:59:22;22.40;99.90
19622;DHT22;9958;33.196;-97.114;2022-09-09T10:01:52;22.40;99.90
19622;DHT22;9958;33.196;-97.114;2022-09-09T10:04:21;22.40;99.90
19622;DHT22;9958;33.196;-97.114;2022-09-09T10:06:51;22.40;99.90
19622;DHT22;9958;33.196;-97.114;2022-09-09T10:09:24;22.30;99.90
19622;DHT22;9958;33.196;-97.114;2022-09-09T10:11:59;22.30;99.90
19622;DHT22;9958;33.196;-97.114;2022-09-09T10:14:34;22.30;99.90
19622;DHT22;9958;33.196;-97.114;2022-09-09T10:17:16;22.30;99.90
19622;DHT22;9958;33.196;-97.114;2022-09-09T10:19:57;22.20;99.90
19622;DHT22;9958;33.196;-97.114;2022-09-09T10:22:31;22.20;99.90
19622;DHT22;9958;33.196;-97.114;2022-09-09T10:25:32;22.10;99.90
19622;DHT22;9958;33.196;-97.114;2022-09-09T10:28:20;22.10;99.90
19622;DHT22;9958;33.196;-97.114;2022-09-09T10:30:59;22.00;99.90
19622;DHT22;9958;33.196;-97.114;2022-09-09T10:33:32;22.00;99.90
19622;DHT22;9958;33.196;-97.114;2022-09-09T10:36:11;22.00;99.90
19622;DHT22;9958;33.196;-97.114;2022-09-09T10:38:41;21.90;99.90
19622;DHT22;9958;33.196;-97.114;2022-09-09T10:41:18;21.90;99.90
19622;DHT22;9958;33.196;-97.114;2022-09-09T10:47:14;21.80;99.90
19622;DHT22;9958;33.196;-97.114;2022-09-09T10:50:11;21.80;99.90
19622;DHT22;9958;33.196;-97.114;2022-09-09T10:52:46;21.80;99.90
19622;DHT22;9958;33.196;-97.114;2022-09-09T10:55:20;21.80;99.90
19622;DHT22;9958;33.196;-97.114;2022-09-09T10:57:54;21.80;99.90
19622;DHT22;9958;33.196;-97.114;2022-09-09T11:00:24;21.80;99.90
19622;DHT22;9958;33.196;-97.114;2022-09-09T11:02:57;21.80;99.90
19622;DHT22;9958;33.196;-97.114;2022-09-09T11:05:30;21.70;99.90
19622;DHT22;9958;33.196;-97.114;2022-09-09T11:08:03;21.80;99.90
19622;DHT22;9958;33.196;-97.114;2022-09-09T11:10:39;21.70;99.90
19622;DHT22;9958;33.196;-97.114;2022-09-09T11:13:13;21.70;99.90
19622;DHT22;9958;33.196;-97.114;2022-09-09T11:15:45;21.70;99.90
19622;DHT22;9958;33.196;-97.114;2022-09-09T11:18:18;21.70;99.90
19622;DHT22;9958;33.196;-97.114;2022-09-09T11:20:51;21.70;99.90
19622;DHT22;9958;33.196;-97.114;2022-09-09T11:23:25;21.70;99.90
19622;DHT22;9958;33.196;-97.114;2022-09-09T11:25:57;21.70;99.90
19622;DHT22;9958;33.196;-97.114;2022-09-09T11:28:42;21.70;99.90
19622;DHT22;9958;33.196;-97.114;2022-09-09T11:31:28;21.70;99.90
19622;DHT22;9958;33.196;-97.114;2022-09-09T11:34:19;21.60;99.90
19622;DHT22;9958;33.196;-97.114;2022-09-09T11:37:13;21.70;99.90
19622;DHT22;9958;33.196;-97.114;2022-09-09T11:43:01;21.60;99.90
19622;DHT22;9958;33.196;-97.114;2022-09-09T11:45:31;21.60;99.90
19622;DHT22;9958;33.196;-97.114;2022-09-09T11:48:01;21.60;99.90
19622;DHT22;9958;33.196;-97.114;2022-09-09T11:50:33;21.60;99.90
19622;DHT22;9958;33.196;-97.114;2022-09-09T11:53:19;21.60;99.90
19622;DHT22;9958;33.196;-97.114;2022-09-09T11:56:03;21.60;99.90
19622;DHT22;9958;33.196;-97.114;2022-09-09T11:58:37;21.60;99.90
19622;DHT22;9958;33.196;-97.114;2022-09-09T12:01:30;21.50;99.90
19622;DHT22;9958;33.196;-97.114;2022-09-09T12:04:18;21.60;99.90
19622;DHT22;9958;33.196;-97.114;2022-09-09T12:06:53;21.50;99.90
19622;DHT22;9958;33.196;-97.114;2022-09-09T12:09:39;21.60;99.90
19622;DHT22;9958;33.196;-97.114;2022-09-09T12:12:22;21.50;99.90
19622;DHT22;9958;33.196;-97.114;2022-09-09T12:15:00;21.50;99.90
19622;DHT22;9958;33.196;-97.114;2022-09-09T12:17:30;21.50;99.90
19622;DHT22;9958;33.196;-97.114;2022-09-09T12:20:09;21.50;99.90
19622;DHT22;9958;33.196;-97.114;2022-09-09T12:22:47;21.50;99.90
19622;DHT22;9958;33.196;-97.114;2022-09-09T12:25:30;21.50;99.90
19622;DHT22;9958;33.196;-97.114;2022-09-09T12:28:04;21.60;99.90
19622;DHT22;9958;33.196;-97.114;2022-09-09T12:30:39;21.60;99.90
19622;DHT22;9958;33.196;-97.114;2022-09-09T12:33:12;21.70;99.90
19622;DHT22;9958;33.196;-97.114;2022-09-09T12:35:43;21.80;99.90
19622;DHT22;9958;33.196;-97.114;2022-09-09T12:38:16;21.90;99.90
19622;DHT22;9958;33.196;-97.114;2022-09-09T12:40:56;22.20;99.90
19622;DHT22;9958;33.196;-97.114;2022-09-09T12:43:26;22.90;99.90
19622;DHT22;9958;33.196;-97.114;2022-09-09T12:45:57;23.60;99.90
19622;DHT22;9958;33.196;-97.114;2022-09-09T12:48:31;24.50;99.90
19622;DHT22;9958;33.196;-97.114;2022-09-09T12:51:00;25.20;99.90
19622;DHT22;9958;33.196;-97.114;2022-09-09T12:53:32;25.70;99.90
19622;DHT22;9958;33.196;-97.114;2022-09-09T12:56:05;26.40;99.90
19622;DHT22;9958;33.196;-97.114;2022-09-09T12:58:35;27.00;99.90
19622;DHT22;9958;33.196;-97.114;2022-09-09T13:01:05;27.30;99.90
19622;DHT22;9958;33.196;-97.114;2022-09-09T13:03:42;27.40;99.90
19622;DHT22;9958;33.196;-97.114;2022-09-09T13:06:18;27.30;99.90
19622;DHT22;9958;33.196;-97.114;2022-09-09T13:08:47;27.20;99.90
19622;DHT22;9958;33.196;-97.114;2022-09-09T13:11:19;26.90;99.90
19622;DHT22;9958;33.196;-97.114;2022-09-09T13:13:54;26.70;99.90
19622;DHT22;9958;33.196;-97.114;2022-09-09T13:16:25;26.40;99.90
19622;DHT22;9958;33.196;-97.114;2022-09-09T13:18:59;26.30;99.90
19622;DHT22;9958;33.196;-97.114;2022-09-09T13:21:36;26.10;99.90
19622;DHT22;9958;33.196;-97.114;2022-09-09T13:24:06;25.90;99.90
19622;DHT22;9958;33.196;-97.114;2022-09-09T13:26:38;25.90;99.90
19622;DHT22;9958;33.196;-97.114;2022-09-09T13:29:16;25.80;99.90
19622;DHT22;9958;33.196;-97.114;2022-09-09T13:31:48;25.80;99.90
19622;DHT22;9958;33.196;-97.114;2022-09-09T13:34:28;25.70;99.90
19622;DHT22;9958;33.196;-97.114;2022-09-09T13:36:59;25.70;99.90
19622;DHT22;9958;33.196;-97.114;2022-09-09T13:39:30;25.70;99.90
19622;DHT22;9958;33.196;-97.114;2022-09-09T13:41:59;25.70;99.90
19622;DHT22;9958;33.196;-97.114;2022-09-09T13:44:30;25.80;99.90
19622;DHT22;9958;33.196;-97.114;2022-09-09T13:47:02;25.80;99.90
19622;DHT22;9958;33.196;-97.114;2022-09-09T13:49:31;25.80;99.90
19622;DHT22;9958;33.196;-97.114;2022-09-09T13:52:10;25.90;99.90
19622;DHT22;9958;33.196;-97.114;2022-09-09T13:54:38;25.90;99.90
19622;DHT22;9958;33.196;-97.114;2022-09-09T13:57:14;26.00;99.90
19622;DHT22;9958;33.196;-97.114;2022-09-09T13:59:44;26.00;99.90
19622;DHT22;9958;33.196;-97.114;2022-09-09T14:02:12;26.10;99.90
19622;DHT22;9958;33.196;-97.114;2022-09-09T14:04:41;26.20;99.90
19622;DHT22;9958;33.196;-97.114;2022-09-09T14:07:12;26.30;99.90
19622;DHT22;9958;33.196;-97.114;2022-09-09T14:09:41;26.40;99.90
19622;DHT22;9958;33.196;-97.114;2022-09-09T14:12:11;26.50;99.90
19622;DHT22;9958;33.196;-97.114;2022-09-09T14:14:41;26.60;99.90
19622;DHT22;9958;33.196;-97.114;2022-09-09T14:17:10;26.70;99.90
19622;DHT22;9958;33.196;-97.114;2022-09-09T14:19:38;26.80;99.90
19622;DHT22;9958;33.196;-97.114;2022-09-09T14:22:06;26.90;99.90
19622;DHT22;9958;33.196;-97.114;2022-09-09T14:24:35;27.00;99.90
19622;DHT22;9958;33.196;-97.114;2022-09-09T14:27:03;27.10;99.90
19622;DHT22;9958;33.196;-97.114;2022-09-09T14:29:33;27.30;99.90
19622;DHT22;9958;33.196;-97.114;2022-09-09T14:32:01;27.40;99.90
19622;DHT22;9958;33.196;-97.114;2022-09-09T14:34:30;27.60;99.90
19622;DHT22;9958;33.196;-97.114;2022-09-09T14:36:58;27.60;99.90
19622;DHT22;9958;33.196;-97.114;2022-09-09T14:39:26;27.80;99.90
19622;DHT22;9958;33.196;-97.114;2022-09-09T14:41:55;27.80;99.90
19622;DHT22;9958;33.196;-97.114;2022-09-09T14:44:24;27.90;99.90
19622;DHT22;9958;33.196;-97.114;2022-09-09T14:46:54;28.00;99.90
19622;DHT22;9958;33.196;-97.114;2022-09-09T14:49:22;28.10;99.90
19622;DHT22;9958;33.196;-97.114;2022-09-09T14:51:50;28.20;99.90
19622;DHT22;9958;33.196;-97.114;2022-09-09T14:54:18;28.30;99.90
19622;DHT22;9958;33.196;-97.114;2022-09-09T14:56:49;28.30;99.90
19622;DHT22;9958;33.196;-97.114;2022-09-09T14:59:17;28.50;99.90
19622;DHT22;9958;33.196;-97.114;2022-09-09T15:01:45;28.60;99.90
19622;DHT22;9958;33.196;-97.114;2022-09-09T15:04:15;28.70;99.90
19622;DHT22;9958;33.196;-97.114;2022-09-09T15:06:44;28.80;99.90
19622;DHT22;9958;33.196;-97.114;2022-09-09T15:09:14;28.90;99.90
19622;DHT22;9958;33.196;-97.114;2022-09-09T15:11:42;28.90;99.90
19622;DHT22;9958;33.196;-97.114;2022-09-09T15:14:11;29.10;99.90
19622;DHT22;9958;33.196;-97.114;2022-09-09T15:16:40;29.20;99.90
19622;DHT22;9958;33.196;-97.114;2022-09-09T15:19:08;29.20;99.90
19622;DHT22;9958;33.196;-97.114;2022-09-09T15:21:38;29.30;99.90
19622;DHT22;9958;33.196;-97.114;2022-09-09T15:24:08;29.40;99.90
19622;DHT22;9958;33.196;-97.114;2022-09-09T15:26:37;29.50;99.90
19622;DHT22;9958;33.196;-97.114;2022-09-09T15:29:06;29.70;99.90
19622;DHT22;9958;33.196;-97.114;2022-09-09T15:31:35;29.70;99.90
19622;DHT22;9958;33.196;-97.114;2022-09-09T15:34:05;29.80;99.90
19622;DHT22;9958;33.196;-97.114;2022-09-09T15:36:34;29.90;99.90
19622;DHT22;9958;33.196;-97.114;2022-09-09T15:39:06;29.90;99.90
19622;DHT22;9958;33.196;-97.114;2022-09-09T15:41:34;30.00;99.90
19622;DHT22;9958;33.196;-97.114;2022-09-09T15:44:03;30.10;99.90
19622;DHT22;9958;33.196;-97.114;2022-09-09T15:46:32;30.20;99.90
19622;DHT22;9958;33.196;-97.114;2022-09-09T15:49:04;30.30;99.90
19622;DHT22;9958;33.196;-97.114;2022-09-09T15:51:33;30.40;99.90